createdAt,value
2019-04-29T00:00:53.138Z,18.23
2019-04-29T00:03:22.401Z,18.20
2019-04-29T00:05:51.751Z,19.93
2019-04-29T00:08:20.970Z,19.07
2019-04-29T00:10:50.171Z,16.63
2019-04-29T00:13:19.422Z,16.73
2019-04-29T00:16:06.574Z,16.97
2019-04-29T00:18:43.274Z,18.83
2019-04-29T00:21:12.515Z,16.97
2019-04-29T00:23:41.755Z,18.07
2019-04-29T00:26:10.994Z,18.17
2019-04-29T00:28:40.231Z,18.57
2019-04-29T00:31:09.509Z,22.70
2019-04-29T00:33:38.808Z,21.60
2019-04-29T00:36:08.066Z,16.37
2019-04-29T00:39:15.094Z,17.37
2019-04-29T00:42:03.421Z,15.57
2019-04-29T00:44:32.735Z,18.53
2019-04-29T00:47:02.058Z,20.53
2019-04-29T00:49:31.395Z,16.90
2019-04-29T00:52:00.671Z,17.83
2019-04-29T00:54:36.776Z,20.13
2019-04-29T00:57:06.025Z,16.00
2019-04-29T00:59:35.340Z,19.67
2019-04-29T01:02:05.015Z,17.10
2019-04-29T01:04:36.856Z,19.30
2019-04-29T01:07:06.184Z,14.37
2019-04-29T01:09:35.446Z,16.67
2019-04-29T01:12:04.797Z,17.33
2019-04-29T01:14:36.442Z,18.97
2019-04-29T01:17:05.790Z,17.13
2019-04-29T01:19:35.081Z,17.77
2019-04-29T01:22:04.351Z,18.97
2019-04-29T01:24:33.670Z,18.33
2019-04-29T01:27:28.183Z,17.77
2019-04-29T01:29:57.425Z,15.33
2019-04-29T01:32:26.840Z,19.57
2019-04-29T01:34:56.172Z,21.03
2019-04-29T01:37:35.527Z,22.10
2019-04-29T01:40:12.725Z,15.87
2019-04-29T01:42:41.956Z,18.13
2019-04-29T01:45:11.225Z,20.27
2019-04-29T01:47:40.475Z,16.10
2019-04-29T01:50:09.721Z,17.83
2019-04-29T01:52:38.971Z,20.27
2019-04-29T01:55:08.255Z,18.97
2019-04-29T01:57:37.565Z,13.20
2019-04-29T02:00:07.008Z,16.73
2019-04-29T02:02:36.275Z,19.97
2019-04-29T02:05:05.781Z,17.53
2019-04-29T02:07:35.081Z,19.20
2019-04-29T02:10:18.496Z,17.87
2019-04-29T02:12:47.761Z,18.47
2019-04-29T02:15:17.057Z,17.03
2019-04-29T02:17:46.425Z,17.30
2019-04-29T02:20:15.720Z,23.00
2019-04-29T02:23:07.048Z,55.83
2019-04-29T02:25:39.393Z,22.13
2019-04-29T02:28:08.747Z,20.27
2019-04-29T02:30:42.043Z,15.73
2019-04-29T02:33:11.329Z,19.63
2019-04-29T02:35:40.741Z,18.30
2019-04-29T02:38:12.123Z,17.10
2019-04-29T02:40:47.440Z,18.90
2019-04-29T02:43:20.146Z,18.67
2019-04-29T02:45:49.482Z,19.17
2019-04-29T02:48:18.909Z,20.47
2019-04-29T02:50:48.177Z,21.30
2019-04-29T02:53:17.621Z,19.40
2019-04-29T02:55:49.169Z,19.97
2019-04-29T02:58:22.805Z,19.10
2019-04-29T03:01:09.335Z,23.23
2019-04-29T03:04:06.849Z,19.57
2019-04-29T03:06:36.079Z,22.30
2019-04-29T03:09:06.808Z,19.73
2019-04-29T03:11:36.046Z,18.03
2019-04-29T03:14:05.375Z,19.77
2019-04-29T03:16:34.616Z,20.17
2019-04-29T03:19:06.677Z,20.97
2019-04-29T03:21:51.533Z,19.03
2019-04-29T03:24:20.807Z,20.10
2019-04-29T03:26:50.073Z,18.90
2019-04-29T03:29:25.045Z,21.87
2019-04-29T03:31:54.354Z,22.63
2019-04-29T03:34:23.628Z,19.73
2019-04-29T03:36:52.915Z,18.37
2019-04-29T03:39:22.165Z,24.73
2019-04-29T03:41:51.420Z,21.87
2019-04-29T03:44:20.627Z,22.90
2019-04-29T03:46:49.924Z,24.53
2019-04-29T03:49:19.159Z,21.87
2019-04-29T03:51:48.439Z,23.20
2019-04-29T03:54:17.720Z,20.50
2019-04-29T03:56:47.024Z,24.43
2019-04-29T03:59:16.330Z,25.80
2019-04-29T04:01:54.375Z,22.30
2019-04-29T04:04:42.744Z,25.77
2019-04-29T04:07:40.230Z,23.47
2019-04-29T04:10:09.479Z,24.23
2019-04-29T04:12:38.784Z,24.47
2019-04-29T04:15:08.275Z,25.13
2019-04-29T04:17:45.109Z,27.47
2019-04-29T04:20:14.492Z,26.07
2019-04-29T04:22:46.785Z,26.00
2019-04-29T04:25:16.129Z,26.93
2019-04-29T04:27:45.375Z,24.53
2019-04-29T04:30:14.701Z,25.73
2019-04-29T04:32:43.947Z,26.93
2019-04-29T04:35:13.144Z,27.03
2019-04-29T04:37:42.391Z,29.00
2019-04-29T04:40:11.750Z,28.80
2019-04-29T04:42:40.959Z,27.90
2019-04-29T04:45:10.200Z,26.20
2019-04-29T04:47:39.481Z,28.53
2019-04-29T04:50:08.694Z,28.40
2019-04-29T04:52:37.960Z,29.90
2019-04-29T04:55:07.206Z,25.80
2019-04-29T04:57:36.439Z,27.77
2019-04-29T05:00:06.754Z,29.47
2019-04-29T05:02:36.025Z,27.73
2019-04-29T05:05:05.269Z,26.23
2019-04-29T05:07:34.771Z,31.43
2019-04-29T05:10:04.537Z,29.53
2019-04-29T05:12:34.541Z,25.80
2019-04-29T05:15:03.856Z,25.00
2019-04-29T05:17:33.123Z,26.17
2019-04-29T05:20:02.339Z,23.53
2019-04-29T05:22:31.548Z,30.40
2019-04-29T05:25:00.769Z,25.37
2019-04-29T05:27:30.295Z,22.83
2019-04-29T05:29:59.436Z,21.63
2019-04-29T05:32:28.658Z,23.17
2019-04-29T05:34:57.891Z,21.93
2019-04-29T05:37:31.403Z,22.07
2019-04-29T05:40:00.705Z,18.70
2019-04-29T05:42:29.915Z,21.67
2019-04-29T05:45:04.413Z,25.37
2019-04-29T05:47:46.831Z,21.03
2019-04-29T05:50:47.626Z,20.00
2019-04-29T05:53:28.583Z,21.00
2019-04-29T05:55:57.899Z,20.57
2019-04-29T05:58:27.256Z,18.00
2019-04-29T06:00:58.786Z,18.97
2019-04-29T06:03:27.986Z,18.67
2019-04-29T06:05:57.180Z,17.97
2019-04-29T06:08:26.397Z,19.50
2019-04-29T06:10:55.726Z,20.63
2019-04-29T06:13:24.989Z,19.20
2019-04-29T06:15:56.195Z,20.13
2019-04-29T06:18:25.423Z,22.80
2019-04-29T06:21:07.861Z,17.17
2019-04-29T06:23:24.338Z,18.13
2019-04-29T06:25:53.183Z,17.33
2019-04-29T06:28:26.412Z,23.90
2019-04-29T06:30:52.007Z,19.43
2019-04-29T06:33:24.200Z,22.47
2019-04-29T06:35:50.223Z,20.67
2019-04-29T06:38:19.459Z,21.13
2019-04-29T06:40:48.705Z,20.83
2019-04-29T06:43:17.910Z,21.87
2019-04-29T06:45:47.159Z,19.47
2019-04-29T06:48:16.395Z,21.23
2019-04-29T06:50:45.674Z,23.17
2019-04-29T06:53:16.462Z,18.33
2019-04-29T06:55:44.142Z,18.07
2019-04-29T06:58:13.392Z,22.20
2019-04-29T07:00:42.649Z,19.35
2019-04-29T07:03:11.901Z,16.47
2019-04-29T07:05:41.160Z,15.40
2019-04-29T07:08:10.375Z,15.20
2019-04-29T07:10:39.597Z,16.77
2019-04-29T07:13:08.828Z,15.87
2019-04-29T07:15:38.011Z,13.97
2019-04-29T07:18:07.263Z,14.50
2019-04-29T07:20:37.072Z,15.37
2019-04-29T07:23:05.747Z,15.70
2019-04-29T07:25:34.980Z,15.13
2019-04-29T07:28:04.250Z,16.07
2019-04-29T07:30:39.149Z,13.70
2019-04-29T07:33:05.837Z,16.40
2019-04-29T07:35:38.059Z,16.00
2019-04-29T07:38:04.636Z,16.07
2019-04-29T07:40:33.489Z,15.00
2019-04-29T07:43:07.353Z,12.33
2019-04-29T07:45:51.097Z,13.47
2019-04-29T07:48:20.327Z,11.73
2019-04-29T07:50:49.531Z,13.43
2019-04-29T07:53:21.828Z,14.93
2019-04-29T07:55:48.073Z,11.33
2019-04-29T07:58:17.324Z,12.27
2019-04-29T08:00:48.803Z,11.53
2019-04-29T08:03:15.749Z,12.47
2019-04-29T08:05:45.003Z,13.37
2019-04-29T08:08:16.563Z,13.40
2019-04-29T08:10:54.010Z,12.83
2019-04-29T08:13:13.645Z,11.00
2019-04-29T08:15:43.609Z,15.23
2019-04-29T08:18:16.436Z,14.13
2019-04-29T08:20:41.469Z,14.03
2019-04-29T08:23:10.520Z,14.93
2019-04-29T08:25:39.745Z,15.70
2019-04-29T08:28:08.945Z,13.40
2019-04-29T08:30:41.716Z,12.43
2019-04-29T08:33:11.537Z,15.17
2019-04-29T08:35:37.036Z,14.87
2019-04-29T08:38:05.875Z,13.40
2019-04-29T08:40:35.145Z,17.10
2019-04-29T08:43:32.926Z,15.90
2019-04-29T08:46:06.153Z,16.60
2019-04-29T08:48:35.367Z,14.63
2019-04-29T08:51:04.683Z,19.60
2019-04-29T08:53:34.021Z,16.13
2019-04-29T08:56:05.644Z,18.53
2019-04-29T08:58:32.511Z,16.30
2019-04-29T09:01:01.761Z,18.60
2019-04-29T09:03:40.268Z,16.43
2019-04-29T09:06:05.544Z,15.77
2019-04-29T09:08:32.985Z,16.77
2019-04-29T09:10:58.870Z,17.90
2019-04-29T09:13:28.067Z,20.60
2019-04-29T09:15:57.285Z,18.23
2019-04-29T09:18:26.533Z,20.70
2019-04-29T09:20:55.749Z,21.40
2019-04-29T09:23:25.727Z,24.53
2019-04-29T09:26:14.781Z,21.97
2019-04-29T09:28:43.984Z,24.70
2019-04-29T09:31:13.229Z,27.53
2019-04-29T09:33:44.057Z,24.63
2019-04-29T09:36:13.893Z,28.03
2019-04-29T09:38:40.935Z,27.57
2019-04-29T09:41:21.987Z,29.77
2019-04-29T09:44:04.027Z,27.07
2019-04-29T09:46:35.702Z,27.60
2019-04-29T09:49:03.955Z,30.40
2019-04-29T09:51:33.309Z,30.50
2019-04-29T09:54:02.641Z,29.43
2019-04-29T09:56:34.713Z,34.10
2019-04-29T09:59:19.525Z,29.87
2019-04-29T10:02:12.643Z,31.20
2019-04-29T10:04:56.381Z,29.87
2019-04-29T10:07:15.304Z,33.67
2019-04-29T10:09:56.511Z,37.40
2019-04-29T10:12:13.801Z,29.87
2019-04-29T10:14:43.437Z,27.63
2019-04-29T10:17:33.575Z,35.17
2019-04-29T10:20:10.065Z,38.93
2019-04-29T10:22:39.258Z,31.63
2019-04-29T10:25:08.477Z,37.07
2019-04-29T10:27:37.705Z,30.57
2019-04-29T10:30:07.061Z,32.03
2019-04-29T10:32:37.849Z,31.80
2019-04-29T10:35:08.704Z,33.33
2019-04-29T10:37:34.948Z,32.60
2019-04-29T10:40:22.084Z,30.60
2019-04-29T10:43:22.732Z,33.90
2019-04-29T10:46:13.917Z,31.50
2019-04-29T10:49:03.656Z,32.97
2019-04-29T10:51:31.522Z,31.80
2019-04-29T10:54:00.777Z,35.23
2019-04-29T10:56:30.040Z,32.47
2019-04-29T10:58:59.259Z,30.57
2019-04-29T11:02:35.195Z,29.37
2019-04-29T11:05:37.384Z,34.00
2019-04-29T11:08:11.539Z,48.47
2019-04-29T11:10:40.813Z,40.00
2019-04-29T11:13:10.056Z,37.83
2019-04-29T11:15:39.321Z,38.80
2019-04-29T11:18:08.729Z,42.97
2019-04-29T11:20:38.009Z,38.67
2019-04-29T11:23:18.088Z,31.13
2019-04-29T11:26:12.687Z,37.97
2019-04-29T11:28:41.930Z,38.43
2019-04-29T11:31:14.020Z,41.97
2019-04-29T11:33:55.153Z,42.50
2019-04-29T11:36:25.441Z,40.03
2019-04-29T11:38:54.746Z,34.47
2019-04-29T11:41:24.321Z,38.73
2019-04-29T11:43:53.541Z,36.27
2019-04-29T11:46:22.765Z,36.43
2019-04-29T11:48:51.967Z,32.80
2019-04-29T11:51:57.025Z,33.73
2019-04-29T11:54:11.872Z,37.13
2019-04-29T11:56:39.635Z,33.00
2019-04-29T11:59:15.747Z,40.53
2019-04-29T12:02:06.883Z,33.23
2019-04-29T12:04:41.988Z,30.57
2019-04-29T12:07:08.289Z,29.83
2019-04-29T12:09:37.559Z,28.30
2019-04-29T12:12:07.961Z,31.80
2019-04-29T12:14:41.415Z,28.30
2019-04-29T12:17:18.663Z,29.47
2019-04-29T12:19:48.209Z,31.70
2019-04-29T12:22:28.274Z,28.93
2019-04-29T12:24:46.773Z,24.70
2019-04-29T12:27:19.808Z,27.87
2019-04-29T12:29:48.806Z,34.07
2019-04-29T12:32:32.340Z,26.93
2019-04-29T12:35:10.919Z,26.83
2019-04-29T12:37:55.487Z,26.40
2019-04-29T12:40:58.695Z,27.87
2019-04-29T12:43:59.846Z,28.23
2019-04-29T12:46:46.274Z,27.57
2019-04-29T12:49:15.622Z,30.97
2019-04-29T12:51:44.845Z,29.33
2019-04-29T12:54:14.049Z,25.30
2019-04-29T12:56:47.725Z,25.70
2019-04-29T12:59:12.571Z,25.43
2019-04-29T13:02:00.311Z,24.33
2019-04-29T13:04:49.934Z,22.97
2019-04-29T13:07:21.225Z,22.37
2019-04-29T13:09:51.099Z,20.87
2019-04-29T13:12:20.355Z,20.83
2019-04-29T13:15:12.297Z,19.63
2019-04-29T13:17:45.315Z,18.03
2019-04-29T13:20:14.541Z,18.60
2019-04-29T13:22:43.783Z,19.70
2019-04-29T13:25:15.507Z,22.13
2019-04-29T13:27:42.285Z,17.57
2019-04-29T13:30:16.111Z,21.03
2019-04-29T13:32:40.746Z,17.60
2019-04-29T13:35:12.324Z,18.47
2019-04-29T13:37:39.351Z,18.67
2019-04-29T13:40:08.551Z,17.13
2019-04-29T13:42:37.869Z,19.33
2019-04-29T13:45:12.573Z,17.50
2019-04-29T13:48:02.008Z,19.30
2019-04-29T13:50:39.695Z,18.13
2019-04-29T13:53:03.989Z,17.73
2019-04-29T13:55:47.711Z,17.60
2019-04-29T13:58:02.467Z,17.80
2019-04-29T14:00:36.798Z,18.43
2019-04-29T14:03:11.544Z,19.73
2019-04-29T14:05:41.456Z,21.23
2019-04-29T14:08:07.768Z,18.17
2019-04-29T14:10:36.987Z,21.97
2019-04-29T14:13:13.444Z,21.20
2019-04-29T14:15:40.013Z,24.60
2019-04-29T14:18:06.740Z,24.10
2019-04-29T14:20:34.006Z,23.27
2019-04-29T14:23:03.391Z,24.40
2019-04-29T14:25:32.784Z,25.80
2019-04-29T14:28:02.016Z,25.97
2019-04-29T14:30:38.406Z,25.57
2019-04-29T14:33:01.912Z,26.77
2019-04-29T14:35:43.811Z,26.13
2019-04-29T14:38:12.207Z,24.10
2019-04-29T14:40:42.690Z,28.17
2019-04-29T14:43:32.197Z,26.73
2019-04-29T14:46:18.329Z,26.10
2019-04-29T14:48:59.447Z,27.37
2019-04-29T14:51:45.474Z,23.97
2019-04-29T14:54:36.831Z,24.43
2019-04-29T14:57:21.345Z,27.03
2019-04-29T15:00:19.592Z,25.73
2019-04-29T15:03:04.291Z,27.70
2019-04-29T15:05:52.678Z,27.77
2019-04-29T15:08:40.781Z,27.53
2019-04-29T15:11:32.626Z,26.90
2019-04-29T15:14:47.507Z,25.10
2019-04-29T15:17:40.491Z,28.07
2019-04-29T15:20:46.867Z,25.03
2019-04-29T15:23:34.433Z,25.13
2019-04-29T15:26:22.447Z,25.27
2019-04-29T15:29:10.131Z,27.63
2019-04-29T15:31:58.167Z,23.53
2019-04-29T15:34:48.028Z,24.93
2019-04-29T15:37:33.594Z,25.10
2019-04-29T15:40:25.873Z,24.23
2019-04-29T15:43:09.230Z,26.40
2019-04-29T15:45:56.603Z,27.10
2019-04-29T15:48:44.177Z,24.33
2019-04-29T15:51:32.333Z,25.07
2019-04-29T15:54:20.223Z,27.43
2019-04-29T15:57:09.754Z,28.17
2019-04-29T16:00:00.032Z,24.57
2019-04-29T16:02:44.691Z,24.20
2019-04-29T16:06:20.434Z,27.43
2019-04-29T16:08:59.108Z,27.07
2019-04-29T16:12:15.523Z,25.50
2019-04-29T16:15:00.919Z,26.63
2019-04-29T16:17:48.826Z,29.07
2019-04-29T16:20:36.342Z,25.33
2019-04-29T16:23:23.992Z,26.47
2019-04-29T16:26:11.646Z,28.67
2019-04-29T16:28:59.664Z,24.53
2019-04-29T16:31:47.798Z,29.60
2019-04-29T16:34:37.552Z,34.57
2019-04-29T16:37:24.781Z,32.43
2019-04-29T16:40:11.917Z,29.77
2019-04-29T16:43:08.644Z,31.17
2019-04-29T16:46:23.583Z,30.10
2019-04-29T16:49:06.184Z,30.53
2019-04-29T16:51:55.955Z,30.00
2019-04-29T16:54:42.298Z,28.13
2019-04-29T16:57:30.031Z,28.17
2019-04-29T17:00:18.594Z,30.30
2019-04-29T17:03:06.681Z,31.73
2019-04-29T17:05:54.303Z,30.70
2019-04-29T17:09:10.282Z,34.97
2019-04-29T17:11:58.419Z,30.53
2019-04-29T17:15:03.160Z,32.87
2019-04-29T17:17:32.945Z,31.83
2019-04-29T17:20:20.955Z,31.17
2019-04-29T17:23:09.270Z,33.67
2019-04-29T17:25:57.447Z,31.50
2019-04-29T17:28:49.809Z,31.63
2019-04-29T17:32:06.301Z,33.23
2019-04-29T17:34:59.237Z,30.80
2019-04-29T17:37:40.654Z,39.00
2019-04-29T17:40:28.615Z,34.30
2019-04-29T17:43:54.127Z,36.27
2019-04-29T17:46:46.871Z,34.60
2019-04-29T17:49:41.938Z,38.03
2019-04-29T17:52:32.091Z,39.17
2019-04-29T17:55:38.862Z,36.77
2019-04-29T17:58:28.483Z,40.37
2019-04-29T18:01:25.962Z,42.10
2019-04-29T18:04:25.716Z,43.50
2019-04-29T18:07:30.891Z,44.30
2019-04-29T18:10:47.066Z,47.93
2019-04-29T18:13:35.357Z,49.30
2019-04-29T18:16:28.253Z,56.20
2019-04-29T18:19:18.698Z,47.30
2019-04-29T18:22:31.869Z,48.30
2019-04-29T18:25:30.830Z,55.30
2019-04-29T18:28:11.800Z,54.30
2019-04-29T18:30:59.319Z,54.73
2019-04-29T18:33:46.950Z,57.90
2019-04-29T18:36:35.500Z,56.57
2019-04-29T18:39:28.595Z,59.00
2019-04-29T18:42:12.984Z,56.03
2019-04-29T18:45:00.668Z,55.93
2019-04-29T18:47:48.458Z,55.47
2019-04-29T18:50:38.756Z,63.07
2019-04-29T18:53:25.585Z,59.67
2019-04-29T18:56:11.703Z,62.33
2019-04-29T18:58:59.864Z,63.73
2019-04-29T19:01:47.641Z,67.90
2019-04-29T19:04:41.671Z,63.70
2019-04-29T19:07:31.986Z,68.57
2019-04-29T19:10:18.583Z,67.20
2019-04-29T19:13:12.389Z,72.17
2019-04-29T19:15:56.010Z,73.40
2019-04-29T19:18:40.568Z,83.43
2019-04-29T19:21:30.686Z,76.27
2019-04-29T19:24:16.198Z,71.57
2019-04-29T19:27:09.092Z,79.43
2019-04-29T19:29:51.924Z,79.53
2019-04-29T19:32:40.070Z,82.63
2019-04-29T19:35:37.002Z,86.50
2019-04-29T19:38:18.723Z,85.33
2019-04-29T19:41:07.072Z,86.67
2019-04-29T19:43:56.512Z,88.13
2019-04-29T19:46:42.847Z,92.43
2019-04-29T19:49:31.092Z,92.40
2019-04-29T19:52:28.709Z,87.50
2019-04-29T19:55:07.182Z,86.57
2019-04-29T19:57:56.364Z,90.10
2019-04-29T20:00:44.162Z,87.13
2019-04-29T20:03:37.392Z,91.33
2019-04-29T20:06:25.029Z,87.73
2019-04-29T20:09:16.073Z,98.63
2019-04-29T20:11:55.750Z,93.87
2019-04-29T20:14:43.660Z,90.70
2019-04-29T20:17:53.076Z,86.07
2019-04-29T20:21:08.832Z,95.00
2019-04-29T20:23:53.326Z,86.80
2019-04-29T20:26:43.686Z,94.37
2019-04-29T20:29:33.780Z,102.70
2019-04-29T20:32:16.706Z,91.57
2019-04-29T20:35:07.534Z,94.43
2019-04-29T20:37:55.412Z,91.60
2019-04-29T20:40:43.111Z,94.03
2019-04-29T20:43:29.602Z,97.53
2019-04-29T20:46:17.894Z,92.47
2019-04-29T20:49:05.283Z,89.30
2019-04-29T20:51:55.589Z,92.47
2019-04-29T20:54:41.330Z,85.90
2019-04-29T20:57:29.112Z,100.00
2019-04-29T21:00:20.232Z,90.97
2019-04-29T21:03:09.432Z,88.43
2019-04-29T21:05:54.891Z,97.83
2019-04-29T21:08:44.362Z,98.17
2019-04-29T21:11:45.709Z,97.30
2019-04-29T21:14:38.238Z,103.30
2019-04-29T21:17:31.229Z,106.60
2019-04-29T21:20:12.564Z,102.43
2019-04-29T21:23:01.112Z,106.40
2019-04-29T21:25:48.001Z,107.87
2019-04-29T21:28:41.249Z,99.47
2019-04-29T21:31:25.330Z,100.23
2019-04-29T21:34:11.191Z,102.17
2019-04-29T21:37:21.379Z,101.70
2019-04-29T21:40:26.009Z,99.47
2019-04-29T21:43:17.755Z,101.37
2019-04-29T21:46:03.397Z,105.30
2019-04-29T21:48:51.664Z,98.87
2019-04-29T21:51:41.831Z,102.77
2019-04-29T21:54:27.434Z,104.50
2019-04-29T21:57:16.951Z,103.80
2019-04-29T22:00:05.571Z,104.00
2019-04-29T22:02:51.220Z,99.73
2019-04-29T22:05:39.545Z,96.20
2019-04-29T22:08:30.085Z,94.80
2019-04-29T22:11:15.503Z,89.90
2019-04-29T22:14:03.130Z,76.87
2019-04-29T22:16:54.368Z,77.63
2019-04-29T22:19:38.854Z,72.67
2019-04-29T22:22:26.462Z,69.63
2019-04-29T22:25:15.597Z,63.47
2019-04-29T22:28:01.560Z,60.77
2019-04-29T22:30:49.754Z,56.83
2019-04-29T22:33:38.587Z,51.73
2019-04-29T22:36:25.053Z,46.50
2019-04-29T22:39:12.321Z,45.27
2019-04-29T22:42:12.409Z,45.57
2019-04-29T22:45:00.743Z,40.33
2019-04-29T22:47:48.221Z,41.37
2019-04-29T22:50:38.248Z,38.83
2019-04-29T22:53:24.878Z,42.13
2019-04-29T22:56:13.968Z,41.37
2019-04-29T22:58:58.929Z,38.60
2019-04-29T23:01:49.665Z,35.03
2019-04-29T23:04:35.090Z,44.83
2019-04-29T23:07:23.386Z,37.03
2019-04-29T23:10:10.547Z,41.47
2019-04-29T23:12:58.765Z,38.13
2019-04-29T23:15:46.220Z,39.70
2019-04-29T23:18:42.016Z,43.17
2019-04-29T23:21:52.514Z,45.57
2019-04-29T23:24:52.755Z,54.27
2019-04-29T23:27:40.726Z,64.40
2019-04-29T23:30:28.069Z,66.33
2019-04-29T23:33:22.602Z,66.93
2019-04-29T23:36:03.418Z,67.50
2019-04-29T23:38:51.649Z,76.20
2019-04-29T23:41:39.267Z,75.93
2019-04-29T23:44:27.094Z,68.20
2019-04-29T23:47:15.824Z,75.63
2019-04-29T23:50:02.371Z,74.53
2019-04-29T23:52:51.816Z,68.27
2019-04-29T23:55:38.005Z,76.77
2019-04-29T23:58:32.580Z,78.40
